Terminal Aerodrome Forecast
Issued by NWS Twin Cities, MN

Home | Current Version | Previous Version | Text Only | Print | Product List | Glossary Off
Versions: 1 2 3 4 5 6 7 8 9 10 11 12 13 14 15 16 17 18 19 20 21 22 23 24 25 26 27 28

345
FTUS43 KMPX 261500 AAA
TAFMSP
TAF AMD
KMSP 261500Z 2615/2718 25007KT P6SM SKC
     FM262000 28009KT P6SM FEW080
     FM270200 VRB03KT P6SM SKC
     FM271500 21003KT P6SM SKC=

USA.gov is the U.S. government's official web portal to all federal, state and local government web resources and services.